createdAt,value
2023-12-18T00:00:36.069Z,101501.63
2023-12-18T00:03:02.758Z,101500.75
2023-12-18T00:05:29.434Z,101508.44
2023-12-18T00:07:55.953Z,101499.06
2023-12-18T00:10:23.746Z,101505.88
2023-12-18T00:12:50.222Z,101511.84
2023-12-18T00:15:16.828Z,101510.13
2023-12-18T00:17:43.521Z,101506.69
2023-12-18T00:20:10.830Z,101513.56
2023-12-18T00:22:37.308Z,101517.81
2023-12-18T00:25:04.014Z,101497.31
2023-12-18T00:27:30.575Z,101491.38
2023-12-18T00:29:57.243Z,101513.56
2023-12-18T00:32:23.787Z,101511.00
2023-12-18T00:34:50.342Z,101517.81
2023-12-18T00:37:16.950Z,101509.31
2023-12-18T00:39:43.478Z,101492.28
2023-12-18T00:42:10.092Z,101496.53
2023-12-18T00:44:36.700Z,101493.91
2023-12-18T00:47:04.139Z,101491.38
2023-12-18T00:49:33.816Z,101491.38
2023-12-18T00:52:01.144Z,101479.44
2023-12-18T00:54:27.804Z,101486.25
2023-12-18T00:56:54.550Z,101487.13
2023-12-18T00:59:21.337Z,101484.59
2023-12-18T01:01:47.968Z,101491.44
2023-12-18T01:04:14.745Z,101494.00
2023-12-18T01:06:41.406Z,101482.09
2023-12-18T01:09:09.987Z,101486.38
2023-12-18T01:11:36.912Z,101483.81
2023-12-18T01:14:03.604Z,101482.13
2023-12-18T01:16:30.480Z,101477.03
2023-12-18T01:18:57.185Z,101479.59
2023-12-18T01:21:23.945Z,101480.47
2023-12-18T01:23:50.557Z,101477.03
2023-12-18T01:26:17.126Z,101496.63
2023-12-18T01:28:44.408Z,101497.50
2023-12-18T01:31:23.859Z,101484.72
2023-12-18T01:33:53.438Z,101488.13
2023-12-18T01:36:20.267Z,101482.16
2023-12-18T01:38:46.942Z,101480.44
2023-12-18T01:41:13.754Z,101475.34
2023-12-18T01:43:40.261Z,101481.31
2023-12-18T01:46:06.971Z,101464.22
2023-12-18T01:48:34.804Z,101466.81
2023-12-18T01:51:02.557Z,101475.31
2023-12-18T01:53:35.233Z,101457.41
2023-12-18T01:56:02.912Z,101464.25
2023-12-18T01:58:32.779Z,101470.19
2023-12-18T02:01:00.636Z,101441.19
2023-12-18T02:03:29.831Z,101451.41
2023-12-18T02:05:57.811Z,101452.28
2023-12-18T02:08:25.592Z,101458.22
2023-12-18T02:10:52.552Z,101453.13
2023-12-18T02:13:19.159Z,101456.53
2023-12-18T02:15:45.735Z,101449.69
2023-12-18T02:18:12.395Z,101447.97
2023-12-18T02:20:42.365Z,101450.50
2023-12-18T02:23:09.567Z,101429.22
2023-12-18T02:25:36.041Z,101439.41
2023-12-18T02:28:05.797Z,101440.28
2023-12-18T02:30:33.334Z,101449.66
2023-12-18T02:32:59.997Z,101441.97
2023-12-18T02:35:27.184Z,101424.06
2023-12-18T02:37:53.786Z,101429.16
2023-12-18T02:40:21.450Z,101434.25
2023-12-18T02:42:47.964Z,101429.09
2023-12-18T02:45:14.593Z,101418.88
2023-12-18T02:47:41.474Z,101418.00
2023-12-18T02:50:08.621Z,101411.19
2023-12-18T02:52:35.206Z,101427.44
2023-12-18T02:55:01.882Z,101430.84
2023-12-18T02:57:29.005Z,101433.41
2023-12-18T02:59:55.535Z,101446.19
2023-12-18T03:02:22.433Z,101441.09
2023-12-18T03:04:49.001Z,101435.13
2023-12-18T03:07:15.547Z,101431.72
2023-12-18T03:09:42.046Z,101437.69
2023-12-18T03:12:08.724Z,101445.38
2023-12-18T03:14:35.334Z,101444.53
2023-12-18T03:17:01.901Z,101440.28
2023-12-18T03:19:28.632Z,101434.31
2023-12-18T03:21:55.406Z,101442.81
2023-12-18T03:24:23.816Z,101440.25
2023-12-18T03:26:50.625Z,101427.47
2023-12-18T03:29:17.190Z,101440.25
2023-12-18T03:31:43.683Z,101421.50
2023-12-18T03:34:10.291Z,101436.84
2023-12-18T03:36:36.922Z,101426.63
2023-12-18T03:39:03.526Z,101434.28
2023-12-18T03:41:30.146Z,101434.28
2023-12-18T03:43:56.638Z,101434.28
2023-12-18T03:46:23.162Z,101424.91
2023-12-18T03:48:49.696Z,101422.38
2023-12-18T03:51:16.457Z,101416.38
2023-12-18T03:53:42.973Z,101409.59
2023-12-18T03:56:09.439Z,101407.00
2023-12-18T03:58:37.859Z,101406.16
2023-12-18T04:01:04.859Z,101391.69
2023-12-18T04:03:34.481Z,101416.44
2023-12-18T04:06:01.474Z,101401.09
2023-12-18T04:08:28.094Z,101415.59
2023-12-18T04:10:54.603Z,101420.72
2023-12-18T04:13:21.179Z,101408.78
2023-12-18T04:15:47.696Z,101411.38
2023-12-18T04:18:14.385Z,101409.66
2023-12-18T04:20:41.002Z,101413.91
2023-12-18T04:23:07.488Z,101405.41
2023-12-18T04:25:35.279Z,101413.06
2023-12-18T04:28:01.721Z,101403.72
2023-12-18T04:30:28.381Z,101408.84
2023-12-18T04:32:54.931Z,101407.97
2023-12-18T04:35:21.514Z,101408.84
2023-12-18T04:37:48.164Z,101400.31
2023-12-18T04:40:15.154Z,101409.72
2023-12-18T04:42:41.922Z,101411.41
2023-12-18T04:45:09.262Z,101407.16
2023-12-18T04:47:35.882Z,101405.44
2023-12-18T04:50:02.421Z,101406.31
2023-12-18T04:52:29.000Z,101389.28
2023-12-18T04:54:55.582Z,101400.34
2023-12-18T04:57:22.123Z,101410.56
2023-12-18T04:59:48.748Z,101400.34
2023-12-18T05:02:15.246Z,101393.53
2023-12-18T05:04:41.958Z,101400.34
2023-12-18T05:07:09.416Z,101411.44
2023-12-18T05:09:36.151Z,101399.50
2023-12-18T05:12:02.734Z,101420.81
2023-12-18T05:14:29.226Z,101419.13
2023-12-18T05:16:55.694Z,101419.13
2023-12-18T05:19:22.467Z,101414.84
2023-12-18T05:21:49.116Z,101411.44
2023-12-18T05:24:15.795Z,101410.56
2023-12-18T05:26:42.444Z,101408.88
2023-12-18T05:29:08.899Z,101408.00
2023-12-18T05:31:35.582Z,101405.47
2023-12-18T05:34:02.277Z,101390.13
2023-12-18T05:36:29.011Z,101400.34
2023-12-18T05:38:55.546Z,101410.59
2023-12-18T05:41:22.094Z,101415.69
2023-12-18T05:43:48.645Z,101414.00
2023-12-18T05:46:15.426Z,101407.16
2023-12-18T05:48:42.042Z,101408.88
2023-12-18T05:51:19.331Z,101396.06
2023-12-18T05:53:45.903Z,101412.28
2023-12-18T05:56:12.523Z,101420.81
2023-12-18T05:58:39.236Z,101412.31
2023-12-18T06:01:06.170Z,101408.88
2023-12-18T06:03:33.196Z,101416.56
2023-12-18T06:05:59.899Z,101422.53
2023-12-18T06:08:26.418Z,101416.53
2023-12-18T06:10:52.924Z,101409.75
2023-12-18T06:13:19.521Z,101422.53
2023-12-18T06:15:46.055Z,101410.59
2023-12-18T06:18:12.901Z,101403.75
2023-12-18T06:20:39.476Z,101419.97
2023-12-18T06:23:05.937Z,101410.59
2023-12-18T06:25:32.472Z,101427.63
2023-12-18T06:27:59.545Z,101419.09
2023-12-18T06:30:26.183Z,101424.19
2023-12-18T06:32:52.805Z,101421.66
2023-12-18T06:35:19.479Z,101431.88
2023-12-18T06:37:46.278Z,101424.22
2023-12-18T06:40:13.077Z,101423.38
2023-12-18T06:42:40.294Z,101431.88
2023-12-18T06:45:07.633Z,101442.09
2023-12-18T06:47:34.283Z,101436.97
2023-12-18T06:50:00.872Z,101434.41
2023-12-18T06:52:27.364Z,101426.75
2023-12-18T06:54:53.972Z,101429.31
2023-12-18T06:57:20.494Z,101435.25
2023-12-18T06:59:46.980Z,101430.13
2023-12-18T07:02:13.447Z,101436.94
2023-12-18T07:04:39.912Z,101454.88
2023-12-18T07:07:06.496Z,101449.75
2023-12-18T07:09:33.121Z,101433.53
2023-12-18T07:11:59.717Z,101448.06
2023-12-18T07:14:26.211Z,101445.50
2023-12-18T07:16:54.234Z,101448.03
2023-12-18T07:19:20.941Z,101437.84
2023-12-18T07:21:47.563Z,101425.06
2023-12-18T07:24:14.127Z,101447.22
2023-12-18T07:26:40.627Z,101441.28
2023-12-18T07:29:07.124Z,101443.81
2023-12-18T07:31:33.779Z,101444.69
2023-12-18T07:34:00.451Z,101448.94
2023-12-18T07:36:27.058Z,101448.09
2023-12-18T07:38:53.583Z,101442.97
2023-12-18T07:41:20.161Z,101441.28
2023-12-18T07:43:46.832Z,101433.59
2023-12-18T07:46:20.500Z,101444.69
2023-12-18T07:48:49.481Z,101424.22
2023-12-18T07:51:16.728Z,101447.22
2023-12-18T07:53:43.391Z,101442.97
2023-12-18T07:56:09.908Z,101432.75
2023-12-18T07:58:36.513Z,101442.97
2023-12-18T08:01:05.242Z,101446.41
2023-12-18T08:03:32.092Z,101450.66
2023-12-18T08:05:58.733Z,101458.31
2023-12-18T08:08:25.204Z,101445.53
2023-12-18T08:10:51.774Z,101443.81
2023-12-18T08:13:18.341Z,101439.53
2023-12-18T08:15:44.926Z,101437.81
2023-12-18T08:18:13.307Z,101421.59
2023-12-18T08:20:40.207Z,101432.69
2023-12-18T08:23:06.725Z,101421.56
2023-12-18T08:25:33.241Z,101426.69
2023-12-18T08:27:59.986Z,101420.69
2023-12-18T08:30:26.638Z,101417.25
2023-12-18T08:32:53.286Z,101419.78
2023-12-18T08:35:19.791Z,101412.06
2023-12-18T08:37:46.248Z,101410.34
2023-12-18T08:40:12.997Z,101418.81
2023-12-18T08:42:39.576Z,101407.72
2023-12-18T08:45:06.569Z,101411.06
2023-12-18T08:47:33.699Z,101421.28
2023-12-18T08:50:00.332Z,101422.97
2023-12-18T08:52:26.826Z,101415.25
2023-12-18T08:54:53.296Z,101410.13
2023-12-18T08:57:19.978Z,101419.47
2023-12-18T08:59:46.561Z,101410.88
2023-12-18T09:02:13.104Z,101416.84
2023-12-18T09:04:39.702Z,101420.19
2023-12-18T09:07:06.375Z,101423.59
2023-12-18T09:09:32.966Z,101421.84
2023-12-18T09:11:59.516Z,101419.28
2023-12-18T09:14:26.076Z,101421.75
2023-12-18T09:16:52.543Z,101420.81
2023-12-18T09:19:19.662Z,101427.53
2023-12-18T09:21:46.197Z,101417.19
2023-12-18T09:24:12.778Z,101409.44
2023-12-18T09:26:39.318Z,101411.94
2023-12-18T09:29:05.963Z,101405.03
2023-12-18T09:31:32.727Z,101395.59
2023-12-18T09:33:59.654Z,101394.63
2023-12-18T09:36:26.353Z,101390.25
2023-12-18T09:38:52.889Z,101396.19
2023-12-18T09:41:26.164Z,101394.34
2023-12-18T09:43:55.970Z,101392.56
2023-12-18T09:46:23.929Z,101386.53
2023-12-18T09:48:54.700Z,101376.19
2023-12-18T09:51:23.494Z,101382.06
2023-12-18T09:53:53.063Z,101376.84
2023-12-18T09:56:23.537Z,101370.81
2023-12-18T09:58:50.545Z,101372.41
2023-12-18T10:01:17.507Z,101363.81
2023-12-18T10:03:44.343Z,101362.91
2023-12-18T10:06:11.053Z,101367.00
2023-12-18T10:08:38.349Z,101373.75
2023-12-18T10:11:05.071Z,101377.09
2023-12-18T10:13:31.674Z,101367.59
2023-12-18T10:16:00.288Z,101366.59
2023-12-18T10:18:27.334Z,101350.31
2023-12-18T10:20:54.043Z,101352.72
2023-12-18T10:23:20.556Z,101354.31
2023-12-18T10:25:48.056Z,101347.31
2023-12-18T10:28:14.582Z,101348.94
2023-12-18T10:30:41.249Z,101353.09
2023-12-18T10:33:11.682Z,101332.47
2023-12-18T10:35:39.340Z,101343.50
2023-12-18T10:38:06.184Z,101345.03
2023-12-18T10:40:32.925Z,101328.69
2023-12-18T10:43:38.767Z,101339.50
2023-12-18T10:46:06.175Z,101337.63
2023-12-18T10:48:33.785Z,101329.03
2023-12-18T10:51:02.319Z,101330.66
2023-12-18T10:53:30.397Z,101323.63
2023-12-18T10:55:59.373Z,101318.28
2023-12-18T10:58:25.904Z,101316.50
2023-12-18T11:00:54.221Z,101320.63
2023-12-18T11:03:27.944Z,101312.06
2023-12-18T11:05:57.772Z,101304.16
2023-12-18T11:08:25.428Z,101312.53
2023-12-18T11:10:54.550Z,101312.53
2023-12-18T11:13:28.350Z,101312.56
2023-12-18T11:16:23.995Z,101303.88
2023-12-18T11:19:16.198Z,101299.47
2023-12-18T11:21:50.465Z,101298.50
2023-12-18T11:24:18.366Z,101280.75
2023-12-18T11:26:46.914Z,101290.06
2023-12-18T11:29:49.482Z,101289.88
2023-12-18T11:32:48.087Z,101287.22
2023-12-18T11:35:16.369Z,101276.84
2023-12-18T11:37:52.358Z,101269.91
2023-12-18T11:40:35.430Z,101274.00
2023-12-18T11:43:02.915Z,101273.03
2023-12-18T11:45:29.717Z,101273.78
2023-12-18T11:47:58.271Z,101261.09
2023-12-18T11:50:25.865Z,101271.94
2023-12-18T11:52:59.388Z,101264.53
2023-12-18T11:55:38.146Z,101271.34
2023-12-18T11:58:05.511Z,101255.06
2023-12-18T12:00:32.704Z,101251.59
2023-12-18T12:02:59.746Z,101254.16
2023-12-18T12:05:26.846Z,101244.03
2023-12-18T12:07:54.142Z,101237.50
2023-12-18T12:10:23.537Z,101243.41
2023-12-18T12:12:57.520Z,101222.78
2023-12-18T12:15:28.356Z,101225.19
2023-12-18T12:18:07.726Z,101229.50
2023-12-18T12:20:34.823Z,101224.25
2023-12-18T12:23:01.332Z,101218.31
2023-12-18T12:25:28.030Z,101224.13
2023-12-18T12:27:54.691Z,101226.59
2023-12-18T12:30:22.949Z,101219.50
2023-12-18T12:32:49.707Z,101208.94
2023-12-18T12:35:18.258Z,101208.63
2023-12-18T12:37:46.589Z,101208.47
2023-12-18T12:40:13.153Z,101210.06
2023-12-18T12:42:41.467Z,101206.44
2023-12-18T12:45:10.372Z,101202.75
2023-12-18T12:47:38.626Z,101184.69
2023-12-18T12:50:07.025Z,101196.31
2023-12-18T12:52:38.254Z,101194.38
2023-12-18T12:55:08.268Z,101184.78
2023-12-18T12:57:34.909Z,101185.53
2023-12-18T13:00:01.585Z,101174.44
2023-12-18T13:02:29.019Z,101186.38
2023-12-18T13:04:55.626Z,101182.34
2023-12-18T13:07:23.828Z,101183.34
2023-12-18T13:09:51.988Z,101183.25
2023-12-18T13:12:18.836Z,101179.16
2023-12-18T13:14:46.541Z,101170.81
2023-12-18T13:17:13.793Z,101169.81
2023-12-18T13:19:40.860Z,101177.31
2023-12-18T13:22:07.603Z,101164.53
2023-12-18T13:24:34.803Z,101172.25
2023-12-18T13:27:01.983Z,101174.13
2023-12-18T13:29:34.669Z,101167.97
2023-12-18T13:32:02.449Z,101166.22
2023-12-18T13:34:29.773Z,101160.19
2023-12-18T13:36:57.372Z,101161.66
2023-12-18T13:39:24.462Z,101167.47
2023-12-18T13:41:56.489Z,101167.31
2023-12-18T13:44:24.230Z,101169.81
2023-12-18T13:46:51.649Z,101170.41
2023-12-18T13:49:19.072Z,101159.94
2023-12-18T13:51:46.098Z,101162.47
2023-12-18T13:54:12.991Z,101161.53
2023-12-18T13:56:39.776Z,101151.41
2023-12-18T13:59:06.883Z,101146.22
2023-12-18T14:01:33.816Z,101159.84
2023-12-18T14:04:00.588Z,101143.72
2023-12-18T14:06:27.534Z,101145.88
2023-12-18T14:08:54.163Z,101141.47
2023-12-18T14:11:20.794Z,101155.06
2023-12-18T14:13:48.041Z,101145.56
2023-12-18T14:16:14.687Z,101149.00
2023-12-18T14:18:42.033Z,101145.56
2023-12-18T14:21:08.758Z,101151.63
2023-12-18T14:23:35.315Z,101155.97
2023-12-18T14:26:02.049Z,101160.31
2023-12-18T14:28:28.640Z,101151.78
2023-12-18T14:30:55.337Z,101124.75
2023-12-18T14:33:22.077Z,101147.72
2023-12-18T14:35:50.471Z,101140.06
2023-12-18T14:38:18.720Z,101128.44
2023-12-18T14:40:46.582Z,101124.28
2023-12-18T14:43:13.584Z,101143.94
2023-12-18T14:45:40.358Z,101141.50
2023-12-18T14:48:07.271Z,101146.09
2023-12-18T14:50:34.912Z,101148.91
2023-12-18T14:53:03.241Z,101157.50
2023-12-18T14:55:31.702Z,101154.19
2023-12-18T14:58:06.275Z,101148.28
2023-12-18T15:00:33.947Z,101139.06
2023-12-18T15:03:02.178Z,101153.69
2023-12-18T15:05:28.793Z,101153.97
2023-12-18T15:07:57.516Z,101161.06
2023-12-18T15:10:25.210Z,101171.38
2023-12-18T15:12:51.753Z,101166.38
2023-12-18T15:15:18.348Z,101166.47
2023-12-18T15:17:44.998Z,101146.13
2023-12-18T15:20:12.052Z,101159.84
2023-12-18T15:22:38.738Z,101163.47
2023-12-18T15:25:05.953Z,101170.38
2023-12-18T15:27:33.166Z,101167.03
2023-12-18T15:29:59.942Z,101169.72
2023-12-18T15:32:26.539Z,101165.69
2023-12-18T15:34:53.752Z,101181.16
2023-12-18T15:37:20.512Z,101164.22
2023-12-18T15:39:47.206Z,101157.31
2023-12-18T15:42:13.977Z,101162.56
2023-12-18T15:44:40.857Z,101166.31
2023-12-18T15:47:08.689Z,101163.97
2023-12-18T15:49:35.425Z,101153.91
2023-12-18T15:52:02.352Z,101152.47
2023-12-18T15:54:28.966Z,101157.84
2023-12-18T15:56:55.972Z,101139.41
2023-12-18T15:59:23.009Z,101153.94
2023-12-18T16:01:49.733Z,101140.50
2023-12-18T16:04:16.373Z,101139.94
2023-12-18T16:06:43.433Z,101138.41
2023-12-18T16:09:13.628Z,101136.00
2023-12-18T16:11:40.951Z,101140.41
2023-12-18T16:14:07.806Z,101144.84
2023-12-18T16:16:34.423Z,101149.31
2023-12-18T16:19:01.119Z,101146.94
2023-12-18T16:21:29.484Z,101144.59
2023-12-18T16:23:56.188Z,101150.69
2023-12-18T16:26:22.849Z,101140.56
2023-12-18T16:28:50.748Z,101143.22
2023-12-18T16:31:17.330Z,101160.44
2023-12-18T16:33:44.213Z,101163.09
2023-12-18T16:36:19.083Z,101156.34
2023-12-18T16:38:47.658Z,101151.31
2023-12-18T16:41:14.932Z,101149.72
2023-12-18T16:43:41.419Z,101147.34
2023-12-18T16:46:07.944Z,101167.06
2023-12-18T16:48:35.816Z,101167.19
2023-12-18T16:51:03.249Z,101169.88
2023-12-18T16:53:29.932Z,101160.56
2023-12-18T16:55:56.563Z,101160.63
2023-12-18T16:58:23.402Z,101148.00
2023-12-18T17:00:50.235Z,101159.00
2023-12-18T17:03:20.196Z,101153.88
2023-12-18T17:05:46.945Z,101158.28
2023-12-18T17:08:14.230Z,101149.81
2023-12-18T17:10:40.889Z,101148.91
2023-12-18T17:13:07.486Z,101160.03
2023-12-18T17:15:34.484Z,101138.69
2023-12-18T17:18:01.120Z,101135.22
2023-12-18T17:20:27.782Z,101127.56
2023-12-18T17:22:54.278Z,101127.53
2023-12-18T17:25:20.750Z,101130.09
2023-12-18T17:27:47.243Z,101133.50
2023-12-18T17:30:13.860Z,101126.72
2023-12-18T17:32:40.443Z,101131.97
2023-12-18T17:35:07.740Z,101124.41
2023-12-18T17:37:34.590Z,101120.94
2023-12-18T17:40:01.989Z,101116.72
2023-12-18T17:42:32.025Z,101120.28
2023-12-18T17:45:01.953Z,101098.22
2023-12-18T17:47:29.726Z,101116.13
2023-12-18T17:49:56.491Z,101123.00
2023-12-18T17:52:23.094Z,101129.13
2023-12-18T17:54:49.808Z,101118.13
2023-12-18T17:57:16.864Z,101126.63
2023-12-18T17:59:43.493Z,101112.19
2023-12-18T18:02:11.331Z,101124.97
2023-12-18T18:04:38.005Z,101131.81
2023-12-18T18:07:06.003Z,101120.75
2023-12-18T18:09:35.235Z,101113.25
2023-12-18T18:12:01.736Z,101127.75
2023-12-18T18:14:28.582Z,101126.97
2023-12-18T18:16:55.101Z,101121.09
2023-12-18T18:19:21.781Z,101115.97
2023-12-18T18:21:48.353Z,101104.09
2023-12-18T18:24:14.983Z,101111.78
2023-12-18T18:26:41.709Z,101115.25
2023-12-18T18:29:08.363Z,101116.94
2023-12-18T18:31:35.069Z,101110.19
2023-12-18T18:34:02.480Z,101118.69
2023-12-18T18:36:31.954Z,101105.81
2023-12-18T18:38:59.251Z,101112.66
2023-12-18T18:41:26.409Z,101122.91
2023-12-18T18:43:53.025Z,101124.56
2023-12-18T18:46:19.600Z,101119.53
2023-12-18T18:48:46.927Z,101126.31
2023-12-18T18:51:13.560Z,101121.19
2023-12-18T18:53:40.112Z,101117.88
2023-12-18T18:56:07.452Z,101111.91
2023-12-18T18:58:37.113Z,101104.19
2023-12-18T19:01:04.050Z,101105.06
2023-12-18T19:03:30.966Z,101090.59
2023-12-18T19:05:57.596Z,101098.22
2023-12-18T19:08:25.600Z,101097.47
2023-12-18T19:10:52.121Z,101109.34
2023-12-18T19:13:19.850Z,101099.13
2023-12-18T19:15:48.039Z,101099.97
2023-12-18T19:18:14.936Z,101109.31
2023-12-18T19:20:41.586Z,101105.91
2023-12-18T19:23:08.142Z,101082.88
2023-12-18T19:25:34.763Z,101088.88
2023-12-18T19:28:01.303Z,101089.72
2023-12-18T19:30:28.258Z,101089.72
2023-12-18T19:32:56.313Z,101078.72
2023-12-18T19:35:22.894Z,101077.06
2023-12-18T19:37:49.464Z,101075.41
2023-12-18T19:40:16.081Z,101072.00
2023-12-18T19:42:42.672Z,101067.81
2023-12-18T19:45:09.594Z,101068.69
2023-12-18T19:47:36.145Z,101072.16
2023-12-18T19:50:03.052Z,101070.56
2023-12-18T19:52:29.762Z,101068.00
2023-12-18T19:54:56.301Z,101054.47
2023-12-18T19:57:22.815Z,101057.88
2023-12-18T19:59:49.320Z,101051.97
2023-12-18T20:02:17.032Z,101060.50
2023-12-18T20:04:43.555Z,101050.34
2023-12-18T20:07:10.179Z,101060.59
2023-12-18T20:09:36.921Z,101058.03
2023-12-18T20:12:04.158Z,101053.72
2023-12-18T20:14:30.717Z,101053.69
2023-12-18T20:16:57.222Z,101036.69
2023-12-18T20:19:23.918Z,101048.56
2023-12-18T20:21:51.724Z,101053.66
2023-12-18T20:24:18.899Z,101044.34
2023-12-18T20:26:47.503Z,101040.94
2023-12-18T20:29:14.417Z,101040.06
2023-12-18T20:31:41.862Z,101042.56
2023-12-18T20:34:08.609Z,101020.41
2023-12-18T20:36:35.188Z,101029.69
2023-12-18T20:39:02.808Z,101016.94
2023-12-18T20:41:29.327Z,101025.47
2023-12-18T20:43:55.914Z,101020.31
2023-12-18T20:46:22.399Z,101019.50
2023-12-18T20:48:50.762Z,101011.00
2023-12-18T20:51:17.484Z,101023.78
2023-12-18T20:53:43.980Z,101017.00
2023-12-18T20:56:13.991Z,101005.09
2023-12-18T20:58:41.495Z,101022.06
2023-12-18T21:01:09.864Z,101007.59
2023-12-18T21:03:36.638Z,101010.19
2023-12-18T21:06:03.449Z,101022.09
2023-12-18T21:08:29.975Z,101011.06
2023-12-18T21:10:56.460Z,101017.84
2023-12-18T21:13:24.194Z,101025.53
2023-12-18T21:15:52.103Z,101017.00
2023-12-18T21:18:18.605Z,101005.94
2023-12-18T21:20:45.165Z,101005.97
2023-12-18T21:23:11.717Z,101014.50
2023-12-18T21:25:38.269Z,101021.34
2023-12-18T21:28:04.858Z,101017.06
2023-12-18T21:30:32.665Z,101014.50
2023-12-18T21:32:59.408Z,101028.13
2023-12-18T21:35:26.063Z,101023.00
2023-12-18T21:37:52.941Z,101017.06
2023-12-18T21:40:19.512Z,101016.25
2023-12-18T21:42:46.160Z,101012.88
2023-12-18T21:45:13.025Z,101020.56
2023-12-18T21:47:40.577Z,101013.81
2023-12-18T21:50:08.065Z,101017.22
2023-12-18T21:52:34.594Z,101017.22
2023-12-18T21:55:01.209Z,101011.34
2023-12-18T21:57:27.720Z,100996.84
2023-12-18T21:59:55.238Z,101007.09
2023-12-18T22:02:21.761Z,101002.88
2023-12-18T22:04:48.340Z,101013.94
2023-12-18T22:07:14.863Z,101008.84
2023-12-18T22:09:41.453Z,101002.88
2023-12-18T22:12:08.682Z,100999.50
2023-12-18T22:14:35.408Z,100999.53
2023-12-18T22:17:02.199Z,101000.47
2023-12-18T22:19:28.860Z,100991.13
2023-12-18T22:21:55.632Z,100986.94
2023-12-18T22:24:22.189Z,100992.00
2023-12-18T22:26:48.771Z,101005.66
2023-12-18T22:29:15.241Z,100992.91
2023-12-18T22:31:42.541Z,101002.22
2023-12-18T22:34:09.462Z,100992.88
2023-12-18T22:36:38.559Z,100986.97
2023-12-18T22:39:11.507Z,100986.97
2023-12-18T22:41:40.902Z,100993.78
2023-12-18T22:44:07.675Z,100987.00
2023-12-18T22:46:34.335Z,100991.22
2023-12-18T22:49:01.518Z,100986.09
2023-12-18T22:51:28.207Z,100987.78
2023-12-18T22:53:54.725Z,100984.44
2023-12-18T22:56:21.880Z,100986.97
2023-12-18T22:58:48.936Z,100992.91
2023-12-18T23:01:15.445Z,100984.44
2023-12-18T23:03:42.168Z,100985.28
2023-12-18T23:06:09.867Z,100987.03
2023-12-18T23:08:36.489Z,100987.00
2023-12-18T23:11:03.013Z,100971.75
2023-12-18T23:13:29.664Z,100982.81
2023-12-18T23:15:56.195Z,100976.84
2023-12-18T23:18:22.863Z,100964.13
2023-12-18T23:20:49.470Z,100980.28
2023-12-18T23:23:15.932Z,100969.25
2023-12-18T23:25:42.485Z,100982.88
2023-12-18T23:28:08.967Z,100980.34
2023-12-18T23:30:36.719Z,100975.25
2023-12-18T23:33:06.299Z,100951.50
2023-12-18T23:35:36.515Z,100964.25
2023-12-18T23:38:03.146Z,100967.66
2023-12-18T23:40:29.960Z,100967.63
2023-12-18T23:42:56.480Z,100962.53
2023-12-18T23:45:23.007Z,100961.72
2023-12-18T23:47:50.598Z,100974.44
2023-12-18T23:50:17.856Z,100965.94
2023-12-18T23:52:45.712Z,100959.16
2023-12-18T23:55:15.357Z,100952.34
2023-12-18T23:57:42.415Z,100954.03
